To NAV CANADA Home Page Login to a new session Search on AWWS site Feedback and Comments Disclaimer Vers la page française équivalente Tips FAQ What's new on the site To the Forecasts and Observations / NOTAM section To "File a Flight Plan" website Publications and other links Update of the User's profile FIC Telephone Numbers My Weather Data Folder Route Weather Data Regional Weather Data Local Weather Data To the Forecasts and Observations / NOTAM section
Request Generated 05/25/2016 at 14:49:35 UTC . Weather information available at that time is displayed.

METAR/TAF

ABBOTSFORD/BC    

METAR CYXX 251400Z 25004KT 20SM FEW036 SCT042 BKN056 12/10 A3007 RMK
CF1SC2SC4 SLP185=
METAR CYXX 251300Z 25005KT 200V270 20SM FEW036 BKN042 11/10 A3006 RMK
CF1SC6 SLP181=
METAR CYXX 251200Z 25002KT 20SM BKN038 BKN070 10/09 A3005 RMK SC5AC1
SLP178=

TAF CYXX 251138Z 2512/2612 VRB03KT P6SM BKN050 TEMPO 2512/2520 BKN020
BECMG 2516/2518 22010KT
FM260200 22010KT P6SM SCT060
FM260900 19010G20KT P6SM SCT015 BKN030
RMK NXT FCST BY 251800Z=
Your time UTC time
Weather data provided by Environment Canada and NAV CANADA